Time;durP1;ratioP1;P1;durP2;ratioP2;P2;SDS_P1;SDS_P2;PMS_P1;PMS_P2;Temp;Humidity;BMP_temperature;BMP_pressure;BME280_temperature;BME280_humidity;BME280_pressure;Samples;Min_cycle;Max_cycle;Signal;HPM_P1;HPM_P2
2021/11/09 00:01:41;;;;;;;11.33;6.20;;;;;;;;;;4916452;29;20985;-76
2021/11/09 00:04:51;;;;;;;14.70;6.23;;;;;;;;;;4905677;29;20549;-76
2021/11/09 00:10:59;;;;;;;14.73;5.47;;;;;;;;;;4908014;29;20977;-76
2021/11/09 00:14:04;;;;;;;12.23;5.40;;;;;;;;;;4919637;29;20952;-76
2021/11/09 00:17:09;;;;;;;10.73;5.63;;;;;;;;;;4919776;29;21146;-76
2021/11/09 00:20:16;;;;;;;10.37;5.90;;;;;;;;;;4908080;29;20573;-76
2021/11/09 00:23:20;;;;;;;11.20;5.60;;;;;;;;;;4919733;29;20538;-76
2021/11/09 00:26:24;;;;;;;10.73;5.23;;;;;;;;;;4919454;29;20557;-76
2021/11/09 00:29:28;;;;;;;9.10;5.43;;;;;;;;;;4908027;29;20541;-76
2021/11/09 00:32:33;;;;;;;10.37;5.13;;;;;;;;;;4919818;29;20621;-76
2021/11/09 00:35:37;;;;;;;6.43;5.03;;;;;;;;;;4907967;29;20541;-76
2021/11/09 00:38:42;;;;;;;10.23;5.93;;;;;;;;;;4919354;29;20651;-76
2021/11/09 00:41:46;;;;;;;14.53;5.23;;;;;;;;;;4919058;29;20636;-75
2021/11/09 00:44:50;;;;;;;10.30;5.50;;;;;;;;;;4919357;29;20545;-76
2021/11/09 00:47:54;;;;;;;9.07;4.87;;;;;;;;;;4919329;29;20545;-76
2021/11/09 00:50:58;;;;;;;11.53;5.63;;;;;;;;;;4919198;29;20624;-76
2021/11/09 00:54:03;;;;;;;12.03;5.60;;;;;;;;;;4919747;29;20616;-76
2021/11/09 00:57:07;;;;;;;10.13;5.40;;;;;;;;;;4918806;29;20597;-76
2021/11/09 01:00:17;;;;;;;9.83;4.93;;;;;;;;;;4907198;29;20549;-76
2021/11/09 01:03:21;;;;;;;7.13;4.83;;;;;;;;;;4918887;29;20557;-76
2021/11/09 01:06:28;;;;;;;8.10;4.93;;;;;;;;;;4918990;29;20549;-76
2021/11/09 01:09:33;;;;;;;9.60;4.80;;;;;;;;;;4918919;29;20557;-76
2021/11/09 01:12:37;;;;;;;9.00;5.27;;;;;;;;;;4918538;29;20989;-76
2021/11/09 01:15:49;;;;;;;9.50;5.10;;;;;;;;;;4917861;29;20545;-76
2021/11/09 01:18:55;;;;;;;12.17;5.13;;;;;;;;;;4906901;29;20648;-76
2021/11/09 01:22:02;;;;;;;9.13;4.90;;;;;;;;;;4918370;29;20636;-76
2021/11/09 01:25:08;;;;;;;8.53;5.00;;;;;;;;;;4918369;29;20557;-76
2021/11/09 01:28:12;;;;;;;10.10;5.10;;;;;;;;;;4918619;29;20897;-76
2021/11/09 01:31:16;;;;;;;12.53;4.87;;;;;;;;;;4917590;29;20632;-76
2021/11/09 01:34:20;;;;;;;9.10;4.90;;;;;;;;;;4895775;29;20558;-76
2021/11/09 01:37:25;;;;;;;14.43;5.43;;;;;;;;;;4918377;29;20593;-76
2021/11/09 01:40:31;;;;;;;8.47;4.87;;;;;;;;;;4917156;29;20565;-76
2021/11/09 01:43:37;;;;;;;12.17;4.63;;;;;;;;;;4918324;29;20549;-76
2021/11/09 01:46:41;;;;;;;8.67;5.00;;;;;;;;;;4917490;29;20541;-76
2021/11/09 01:49:46;;;;;;;12.03;5.47;;;;;;;;;;4918085;29;20561;-76
2021/11/09 01:52:50;;;;;;;9.33;5.20;;;;;;;;;;4917734;29;20620;-76
2021/11/09 01:55:57;;;;;;;10.80;5.87;;;;;;;;;;4917790;29;20613;-76
2021/11/09 01:59:03;;;;;;;13.97;5.47;;;;;;;;;;4916930;29;21214;-76
2021/11/09 02:02:07;;;;;;;7.97;4.43;;;;;;;;;;4917623;29;20636;-76
2021/11/09 02:05:13;;;;;;;10.43;5.20;;;;;;;;;;4906242;29;21068;-76
2021/11/09 02:08:18;;;;;;;8.67;5.50;;;;;;;;;;4906266;29;20542;-76
2021/11/09 02:11:22;;;;;;;8.50;4.47;;;;;;;;;;4917491;29;20633;-76
2021/11/09 02:14:26;;;;;;;9.73;4.97;;;;;;;;;;4905880;29;20546;-76
2021/11/09 02:17:31;;;;;;;9.80;4.60;;;;;;;;;;4906022;29;20593;-76
2021/11/09 02:20:35;;;;;;;5.30;3.87;;;;;;;;;;4917622;29;21226;-76
2021/11/09 02:23:42;;;;;;;9.40;4.37;;;;;;;;;;4905984;29;20553;-76
2021/11/09 02:26:46;;;;;;;9.57;4.53;;;;;;;;;;4906077;29;20604;-76
2021/11/09 02:29:50;;;;;;;9.47;4.60;;;;;;;;;;4917528;29;20541;-76
2021/11/09 02:32:56;;;;;;;10.20;4.60;;;;;;;;;;4917198;29;20608;-76
2021/11/09 02:36:00;;;;;;;10.27;4.67;;;;;;;;;;4916620;29;20601;-76
2021/11/09 02:39:04;;;;;;;10.23;5.20;;;;;;;;;;4917096;29;20592;-76
2021/11/09 02:42:11;;;;;;;8.20;4.63;;;;;;;;;;4917072;29;20636;-76
2021/11/09 02:45:28;;;;;;;6.60;4.00;;;;;;;;;;4917352;29;20550;-76
2021/11/09 02:48:42;;;;;;;8.73;4.50;;;;;;;;;;4905468;29;20554;-76
2021/11/09 02:52:00;;;;;;;15.53;4.87;;;;;;;;;;4917175;29;21199;-76
2021/11/09 02:55:08;;;;;;;6.37;4.70;;;;;;;;;;4917118;29;20913;-76
2021/11/09 03:08:30;;;;;;;10.17;4.03;;;;;;;;;;4896821;29;20555;-77
2021/11/09 03:11:38;;;;;;;8.13;3.53;;;;;;;;;;4916656;29;20629;-76
2021/11/09 03:14:43;;;;;;;6.70;4.10;;;;;;;;;;4917018;29;20549;-76
2021/11/09 03:17:52;;;;;;;10.13;3.80;;;;;;;;;;4916159;29;20597;-76
2021/11/09 03:44:20;;;;;;;9.23;4.80;;;;;;;;;;4920503;29;21099;-76
2021/11/09 03:47:25;;;;;;;12.47;3.93;;;;;;;;;;4920416;29;20553;-76
2021/11/09 03:50:29;;;;;;;8.67;3.73;;;;;;;;;;4919957;29;20600;-76
2021/11/09 03:53:36;;;;;;;9.27;4.30;;;;;;;;;;4946119;23;20690;-73
2021/11/09 03:56:46;;;;;;;9.17;4.07;;;;;;;;;;4977739;28;20538;-73
2021/11/09 04:03:00;;;;;;;8.10;4.17;;;;;;;;;;4958343;29;20539;-74
2021/11/09 04:09:30;;;;;;;9.97;4.30;;;;;;;;;;4946337;29;20540;-73
2021/11/09 04:43:57;;;;;;;7.50;4.07;;;;;;;;;;4941343;29;20634;-74
2021/11/09 05:09:08;;;;;;;13.63;5.70;;;;;;;;;;4957384;29;21062;-73
2021/11/09 05:12:13;;;;;;;11.30;5.07;;;;;;;;;;4956167;29;20651;-73
2021/11/09 05:15:17;;;;;;;9.57;4.87;;;;;;;;;;4956664;29;20556;-71
2021/11/09 05:18:22;;;;;;;8.17;4.60;;;;;;;;;;4955835;29;20627;-71
2021/11/09 05:21:26;;;;;;;18.03;5.20;;;;;;;;;;4955245;29;20647;-71
2021/11/09 05:24:30;;;;;;;9.27;4.67;;;;;;;;;;4944739;29;20610;-71
2021/11/09 05:27:34;;;;;;;10.07;4.80;;;;;;;;;;4945005;29;20927;-71
2021/11/09 05:30:40;;;;;;;7.83;4.73;;;;;;;;;;4956358;29;20631;-71
2021/11/09 05:33:44;;;;;;;10.40;4.67;;;;;;;;;;4956597;29;20555;-71
2021/11/09 05:36:48;;;;;;;10.50;4.93;;;;;;;;;;4956635;29;20547;-71
2021/11/09 05:39:55;;;;;;;13.97;5.27;;;;;;;;;;4956384;29;20603;-71
2021/11/09 05:43:00;;;;;;;8.77;4.53;;;;;;;;;;4944415;29;21198;-71
2021/11/09 05:46:05;;;;;;;11.53;5.13;;;;;;;;;;4956172;29;20599;-71
2021/11/09 05:49:09;;;;;;;11.17;5.90;;;;;;;;;;4956422;29;20540;-71
2021/11/09 05:52:13;;;;;;;14.33;7.60;;;;;;;;;;4956950;29;20626;-71
2021/11/09 05:55:18;;;;;;;17.07;7.27;;;;;;;;;;4956147;29;20559;-71
2021/11/09 05:58:22;;;;;;;12.60;7.13;;;;;;;;;;4944378;29;20946;-71
2021/11/09 06:01:28;;;;;;;13.37;7.70;;;;;;;;;;4956054;29;20730;-71
2021/11/09 06:04:32;;;;;;;16.33;7.03;;;;;;;;;;4955641;29;20598;-71
2021/11/09 06:07:37;;;;;;;15.80;6.73;;;;;;;;;;4944020;29;20607;-71
2021/11/09 06:10:41;;;;;;;13.70;6.87;;;;;;;;;;4955758;29;20623;-71
2021/11/09 06:13:46;;;;;;;16.53;6.60;;;;;;;;;;4955880;29;20544;-71
2021/11/09 06:16:50;;;;;;;14.73;8.07;;;;;;;;;;4955918;29;20539;-71
2021/11/09 06:19:54;;;;;;;20.07;9.03;;;;;;;;;;4955744;29;20974;-71
2021/11/09 06:22:58;;;;;;;17.40;7.70;;;;;;;;;;4943986;29;20559;-71
2021/11/09 06:26:03;;;;;;;20.57;7.83;;;;;;;;;;4955604;29;20556;-71
2021/11/09 06:29:07;;;;;;;16.10;7.17;;;;;;;;;;4943890;29;21058;-71
2021/11/09 06:32:13;;;;;;;14.17;7.63;;;;;;;;;;4944122;29;20998;-71
2021/11/09 06:35:18;;;;;;;15.10;7.97;;;;;;;;;;4943707;29;20912;-71
2021/11/09 06:38:22;;;;;;;11.57;7.03;;;;;;;;;;4955482;29;20552;-71
2021/11/09 06:41:27;;;;;;;16.27;7.73;;;;;;;;;;4943310;29;21199;-71
2021/11/09 06:44:31;;;;;;;14.53;8.13;;;;;;;;;;4955466;29;20548;-71
2021/11/09 06:47:35;;;;;;;17.53;7.73;;;;;;;;;;4955349;29;20539;-71
2021/11/09 06:50:39;;;;;;;19.13;8.40;;;;;;;;;;4955261;29;20634;-71
2021/11/09 06:53:43;;;;;;;18.30;8.57;;;;;;;;;;4943090;29;20634;-71
2021/11/09 06:56:48;;;;;;;16.83;7.93;;;;;;;;;;4955024;29;20607;-71
2021/11/09 06:59:52;;;;;;;16.73;7.77;;;;;;;;;;4955055;29;21154;-71
2021/11/09 07:02:57;;;;;;;20.83;8.63;;;;;;;;;;4955297;29;21078;-71
2021/11/09 07:06:04;;;;;;;14.70;7.07;;;;;;;;;;4954813;29;20559;-72
2021/11/09 07:09:08;;;;;;;15.93;7.20;;;;;;;;;;4955133;29;20540;-72
2021/11/09 07:12:12;;;;;;;12.87;6.47;;;;;;;;;;4955218;29;21185;-72
2021/11/09 07:15:17;;;;;;;13.30;6.43;;;;;;;;;;4958144;28;21164;-71
2021/11/09 07:18:21;;;;;;;13.73;6.83;;;;;;;;;;4959034;29;20544;-72
2021/11/09 07:21:26;;;;;;;13.67;6.40;;;;;;;;;;4958986;29;20631;-72
2021/11/09 07:24:31;;;;;;;14.33;6.37;;;;;;;;;;4958978;29;20540;-72
2021/11/09 07:27:35;;;;;;;16.63;6.70;;;;;;;;;;4959225;29;20555;-71
2021/11/09 07:30:43;;;;;;;17.73;7.17;;;;;;;;;;4959067;29;20622;-72
2021/11/09 07:33:49;;;;;;;17.93;7.73;;;;;;;;;;4958504;29;20606;-72
2021/11/09 07:36:53;;;;;;;12.73;7.33;;;;;;;;;;4958779;29;20544;-72
2021/11/09 07:39:57;;;;;;;12.37;6.40;;;;;;;;;;4946549;29;20646;-72
2021/11/09 07:43:01;;;;;;;9.17;5.60;;;;;;;;;;4958360;29;20606;-72
2021/11/09 07:46:05;;;;;;;15.93;7.07;;;;;;;;;;4947065;29;20603;-72
2021/11/09 07:49:09;;;;;;;13.00;6.47;;;;;;;;;;4958252;29;20555;-72
2021/11/09 07:52:14;;;;;;;17.13;6.20;;;;;;;;;;4958205;29;20622;-72
2021/11/09 07:55:20;;;;;;;9.90;6.00;;;;;;;;;;4958482;29;21081;-72
2021/11/09 07:58:36;;;;;;;13.87;7.07;;;;;;;;;;4935607;29;20539;-72
2021/11/09 08:01:45;;;;;;;10.27;6.03;;;;;;;;;;4946164;29;20627;-72
2021/11/09 08:05:02;;;;;;;15.73;8.77;;;;;;;;;;4946257;29;20560;-72
2021/11/09 08:08:11;;;;;;;21.17;10.67;;;;;;;;;;4958251;29;20543;-72
2021/11/09 08:11:15;;;;;;;20.20;11.30;;;;;;;;;;4946035;29;20623;-72
2021/11/09 08:14:20;;;;;;;21.87;10.20;;;;;;;;;;4958165;29;21007;-72
2021/11/09 08:17:24;;;;;;;27.57;13.57;;;;;;;;;;4958407;29;20547;-72
2021/11/09 08:20:28;;;;;;;24.60;11.67;;;;;;;;;;4945962;29;20964;-72
2021/11/09 08:23:33;;;;;;;26.10;13.03;;;;;;;;;;4957675;29;20602;-71
2021/11/09 08:26:37;;;;;;;23.13;11.67;;;;;;;;;;4956661;28;20609;-71
2021/11/09 08:29:49;;;;;;;19.03;7.97;;;;;;;;;;4935115;29;20535;-71
2021/11/09 08:32:54;;;;;;;13.77;7.80;;;;;;;;;;4945697;29;20602;-72
2021/11/09 08:36:03;;;;;;;15.93;7.37;;;;;;;;;;4957439;29;20603;-72
2021/11/09 08:39:09;;;;;;;15.17;8.30;;;;;;;;;;4957597;29;20595;-72
2021/11/09 08:42:21;;;;;;;10.03;5.40;;;;;;;;;;4957795;29;20227;-72
2021/11/09 08:48:45;;;;;;;13.80;5.87;;;;;;;;;;4945637;29;20184;-71
2021/11/09 08:51:51;;;;;;;8.07;4.63;;;;;;;;;;4957088;29;20623;-72
2021/11/09 08:55:24;;;;;;;12.37;5.23;;;;;;;;;;4957051;29;20207;-72
2021/11/09 09:05:15;;;;;;;7.63;3.93;;;;;;;;;;4945639;29;20188;-72
2021/11/09 09:08:20;;;;;;;7.63;3.90;;;;;;;;;;4957489;29;20611;-72
2021/11/09 09:11:24;;;;;;;13.40;5.20;;;;;;;;;;4957015;29;20595;-72
2021/11/09 09:14:29;;;;;;;8.67;3.47;;;;;;;;;;4956761;29;20203;-72
2021/11/09 09:17:36;;;;;;;6.93;3.20;;;;;;;;;;4945187;29;20199;-72
2021/11/09 09:20:44;;;;;;;6.13;3.93;;;;;;;;;;4956644;29;20227;-72
2021/11/09 09:23:56;;;;;;;7.27;3.40;;;;;;;;;;4957426;29;20623;-72
2021/11/09 09:53:59;;;;;;;6.47;2.80;;;;;;;;;;4968601;23;20211;-76
2021/11/09 09:57:03;;;;;;;6.60;3.03;;;;;;;;;;4937510;29;20540;-76
2021/11/09 10:00:08;;;;;;;5.93;2.70;;;;;;;;;;4936174;29;20204;-76
2021/11/09 10:03:15;;;;;;;8.87;2.90;;;;;;;;;;4917966;29;20189;-76
2021/11/09 10:06:20;;;;;;;5.70;2.50;;;;;;;;;;4906565;29;20177;-76
2021/11/09 10:09:36;;;;;;;6.67;2.63;;;;;;;;;;4917701;29;20204;-77
2021/11/09 10:12:42;;;;;;;4.93;2.83;;;;;;;;;;4918097;29;20224;-76
2021/11/09 10:15:49;;;;;;;4.40;2.10;;;;;;;;;;4917776;29;20663;-76
2021/11/09 10:18:53;;;;;;;5.20;2.50;;;;;;;;;;4918096;29;20197;-76
2021/11/09 10:21:57;;;;;;;6.27;2.27;;;;;;;;;;4917691;29;20217;-77
2021/11/09 10:25:08;;;;;;;5.53;2.50;;;;;;;;;;4916864;29;20185;-76
2021/11/09 10:28:24;;;;;;;6.17;3.00;;;;;;;;;;4917681;29;20181;-76
2021/11/09 10:31:28;;;;;;;8.60;3.60;;;;;;;;;;4906057;29;20220;-76
2021/11/09 10:34:35;;;;;;;5.83;2.80;;;;;;;;;;4917639;29;20185;-76
2021/11/09 10:37:46;;;;;;;6.27;2.63;;;;;;;;;;4894776;29;20193;-76
2021/11/09 10:40:51;;;;;;;4.50;2.80;;;;;;;;;;4905769;29;20225;-76
2021/11/09 10:44:07;;;;;;;4.53;2.60;;;;;;;;;;4905789;29;20525;-76
2021/11/09 10:47:20;;;;;;;7.17;3.10;;;;;;;;;;4917460;29;20201;-76
2021/11/09 10:50:34;;;;;;;9.40;3.10;;;;;;;;;;4905288;29;20642;-77
2021/11/09 10:53:47;;;;;;;5.70;3.37;;;;;;;;;;4916727;29;20184;-76
2021/11/09 10:57:09;;;;;;;3.60;2.67;;;;;;;;;;4916887;29;20189;-76
2021/11/09 11:07:17;;;;;;;6.30;3.03;;;;;;;;;;4918176;29;20668;-76
2021/11/09 11:10:28;;;;;;;5.90;2.67;;;;;;;;;;4916726;29;20181;-76
2021/11/09 11:13:32;;;;;;;4.50;2.60;;;;;;;;;;4905971;29;20205;-76
2021/11/09 11:16:52;;;;;;;8.00;3.03;;;;;;;;;;4917245;29;20644;-76
2021/11/09 11:19:58;;;;;;;7.70;3.13;;;;;;;;;;4916224;29;20668;-77
2021/11/09 11:23:03;;;;;;;6.03;2.83;;;;;;;;;;4916806;29;20194;-76
2021/11/09 11:26:07;;;;;;;5.37;2.83;;;;;;;;;;4905234;29;20193;-77
2021/11/09 11:29:20;;;;;;;6.07;3.47;;;;;;;;;;4905421;29;20548;-76
2021/11/09 11:32:25;;;;;;;5.27;3.13;;;;;;;;;;4916780;29;20232;-76
2021/11/09 11:35:29;;;;;;;7.40;3.53;;;;;;;;;;4894276;29;20185;-76
2021/11/09 11:38:44;;;;;;;11.17;4.00;;;;;;;;;;4916170;29;20185;-76
2021/11/09 11:41:52;;;;;;;5.10;3.20;;;;;;;;;;4915991;29;20232;-76
2021/11/09 11:45:00;;;;;;;8.57;3.67;;;;;;;;;;4917158;29;20185;-76
2021/11/09 11:48:05;;;;;;;4.50;3.23;;;;;;;;;;4916341;29;20185;-76
2021/11/09 11:51:13;;;;;;;8.13;3.97;;;;;;;;;;4916516;29;20684;-76
2021/11/09 11:54:19;;;;;;;8.60;4.10;;;;;;;;;;4916536;29;20209;-76
2021/11/09 11:57:44;;;;;;;10.23;3.83;;;;;;;;;;4894320;29;20181;-75
2021/11/09 12:00:55;;;;;;;7.30;3.43;;;;;;;;;;4916757;29;20228;-76
2021/11/09 12:03:59;;;;;;;7.23;4.00;;;;;;;;;;4908746;29;20189;-76
2021/11/09 12:07:04;;;;;;;7.23;4.10;;;;;;;;;;4921991;29;20628;-75
2021/11/09 12:10:09;;;;;;;8.40;3.73;;;;;;;;;;4920243;29;20548;-76
2021/11/09 12:13:16;;;;;;;11.73;4.70;;;;;;;;;;4920142;29;20181;-76
2021/11/09 12:16:39;;;;;;;6.70;4.17;;;;;;;;;;4920695;29;20192;-76
2021/11/09 12:19:48;;;;;;;8.80;3.90;;;;;;;;;;4920069;29;20181;-77
2021/11/09 12:22:54;;;;;;;7.77;4.27;;;;;;;;;;4919579;29;20177;-76
2021/11/09 12:25:58;;;;;;;8.03;4.30;;;;;;;;;;4900918;29;20196;-76
2021/11/09 12:29:02;;;;;;;7.10;3.97;;;;;;;;;;4918962;29;20633;-76
2021/11/09 12:32:38;;;;;;;7.77;4.23;;;;;;;;;;4907438;29;20225;-77
2021/11/09 12:35:47;;;;;;;10.27;4.23;;;;;;;;;;4907484;29;20563;-77
2021/11/09 12:38:56;;;;;;;6.43;3.90;;;;;;;;;;4907938;29;20181;-78
2021/11/09 12:42:00;;;;;;;6.60;3.83;;;;;;;;;;4907870;29;20225;-76
2021/11/09 12:45:12;;;;;;;5.20;3.20;;;;;;;;;;4906437;29;20209;-77
2021/11/09 12:48:24;;;;;;;7.73;4.10;;;;;;;;;;4907541;29;20185;-76
2021/11/09 12:51:35;;;;;;;8.20;3.63;;;;;;;;;;4918905;29;20217;-75
2021/11/09 12:54:39;;;;;;;5.43;3.33;;;;;;;;;;4906864;29;20217;-75
2021/11/09 12:57:43;;;;;;;5.50;3.77;;;;;;;;;;4918336;29;20185;-75
2021/11/09 13:01:18;;;;;;;10.70;3.93;;;;;;;;;;4900277;29;20233;-75
2021/11/09 13:07:38;;;;;;;6.90;3.90;;;;;;;;;;4918029;29;20197;-74
2021/11/09 13:10:42;;;;;;;7.87;3.50;;;;;;;;;;4894442;29;20216;-75
2021/11/09 13:13:47;;;;;;;7.10;3.53;;;;;;;;;;4918457;29;20196;-75
2021/11/09 13:16:52;;;;;;;7.03;3.30;;;;;;;;;;4919161;29;20632;-75
2021/11/09 13:20:13;;;;;;;8.00;3.50;;;;;;;;;;4917522;29;20649;-75
2021/11/09 13:23:24;;;;;;;6.63;3.93;;;;;;;;;;4917748;29;20197;-75
2021/11/09 13:26:28;;;;;;;6.90;3.50;;;;;;;;;;4913230;29;20197;-76
2021/11/09 13:30:06;;;;;;;9.73;3.77;;;;;;;;;;4906745;29;20193;-75
2021/11/09 13:33:11;;;;;;;7.77;3.53;;;;;;;;;;4890229;29;20194;-76
2021/11/09 13:36:22;;;;;;;8.17;3.80;;;;;;;;;;4915618;29;20560;-76
2021/11/09 13:39:26;;;;;;;7.37;3.60;;;;;;;;;;4906528;29;20205;-76
2021/11/09 13:42:30;;;;;;;7.60;3.50;;;;;;;;;;4917477;29;20227;-75
2021/11/09 13:45:35;;;;;;;7.57;3.37;;;;;;;;;;4899249;29;20190;-75
2021/11/09 13:48:43;;;;;;;7.53;3.60;;;;;;;;;;4912359;29;20192;-75
2021/11/09 13:51:57;;;;;;;8.73;3.13;;;;;;;;;;4906353;29;20220;-75
2021/11/09 13:55:02;;;;;;;5.83;3.13;;;;;;;;;;4918055;29;20204;-75
2021/11/09 13:58:10;;;;;;;5.57;2.93;;;;;;;;;;4906877;29;20177;-75
2021/11/09 14:01:20;;;;;;;7.03;3.27;;;;;;;;;;4905599;29;20228;-75
2021/11/09 14:11:09;;;;;;;7.70;3.47;;;;;;;;;;4898777;29;20221;-75
2021/11/09 14:17:32;;;;;;;7.57;3.10;;;;;;;;;;4917033;29;20205;-76
2021/11/09 14:20:36;;;;;;;7.03;3.10;;;;;;;;;;4906058;29;20680;-76
2021/11/09 14:23:43;;;;;;;7.40;3.30;;;;;;;;;;4905997;29;20185;-76
2021/11/09 14:27:13;;;;;;;7.40;3.43;;;;;;;;;;4906144;29;20177;-76
2021/11/09 14:30:23;;;;;;;7.73;2.90;;;;;;;;;;4906297;29;20517;-76
2021/11/09 14:33:31;;;;;;;5.80;2.93;;;;;;;;;;4917685;29;20173;-76
2021/11/09 14:36:36;;;;;;;5.03;3.27;;;;;;;;;;4905991;29;20193;-76
2021/11/09 14:39:45;;;;;;;7.30;3.30;;;;;;;;;;4905795;29;20564;-76
2021/11/09 14:46:09;;;;;;;6.50;3.17;;;;;;;;;;4917471;29;20185;-76
2021/11/09 14:49:21;;;;;;;24.57;3.93;;;;;;;;;;4916805;29;20637;-76
2021/11/09 14:52:28;;;;;;;3.93;2.80;;;;;;;;;;4905470;29;20224;-76
2021/11/09 14:55:41;;;;;;;4.73;2.60;;;;;;;;;;4905306;29;20672;-76
2021/11/09 14:58:58;;;;;;;5.60;2.77;;;;;;;;;;4917429;29;20185;-76
2021/11/09 15:02:05;;;;;;;8.07;2.90;;;;;;;;;;4916186;29;20596;-76
2021/11/09 15:05:18;;;;;;;5.57;3.13;;;;;;;;;;4916138;29;20197;-76
2021/11/09 15:08:30;;;;;;;6.03;3.33;;;;;;;;;;4916566;29;20181;-76
2021/11/09 15:12:06;;;;;;;7.53;2.93;;;;;;;;;;4916129;29;20213;-76
2021/11/09 15:28:34;;;;;;;6.97;3.53;;;;;;;;;;4916323;29;20201;-76
2021/11/09 15:37:54;;;;;;;5.50;2.97;;;;;;;;;;4919832;29;20585;-76
2021/11/09 15:40:59;;;;;;;8.07;3.07;;;;;;;;;;4919052;29;20224;-77
2021/11/09 15:44:04;;;;;;;6.97;2.97;;;;;;;;;;4900924;29;20201;-76
2021/11/09 15:47:08;;;;;;;5.47;3.73;;;;;;;;;;4909123;29;20189;-77
2021/11/09 15:50:13;;;;;;;6.33;3.17;;;;;;;;;;4912121;29;20196;-77
2021/11/09 15:53:16;;;;;;;6.93;3.40;;;;;;;;;;4904756;29;20185;-77
2021/11/09 15:56:20;;;;;;;6.63;3.07;;;;;;;;;;4897975;29;20190;-77
2021/11/09 15:59:25;;;;;;;8.60;3.10;;;;;;;;;;4906023;29;20548;-77
2021/11/09 16:02:29;;;;;;;5.93;3.70;;;;;;;;;;4904507;29;20220;-77
2021/11/09 16:05:35;;;;;;;5.87;3.37;;;;;;;;;;4914988;29;20541;-76
2021/11/09 16:08:39;;;;;;;6.33;3.80;;;;;;;;;;4908590;29;20192;-77
2021/11/09 16:11:45;;;;;;;6.63;3.40;;;;;;;;;;4916124;29;20232;-76
2021/11/09 16:14:50;;;;;;;5.67;3.57;;;;;;;;;;4904427;29;20204;-76
2021/11/09 16:17:55;;;;;;;8.23;3.63;;;;;;;;;;4903962;29;20201;-76
2021/11/09 16:21:00;;;;;;;10.23;3.97;;;;;;;;;;4916142;29;20220;-76
2021/11/09 16:24:04;;;;;;;5.97;3.20;;;;;;;;;;4915673;29;20189;-75
2021/11/09 16:27:09;;;;;;;7.70;3.80;;;;;;;;;;4885774;29;20190;-76
2021/11/09 16:30:16;;;;;;;8.30;3.97;;;;;;;;;;4897145;29;20210;-75
2021/11/09 16:33:27;;;;;;;4.37;3.20;;;;;;;;;;4896258;29;20584;-75
2021/11/09 16:36:33;;;;;;;9.53;4.57;;;;;;;;;;4904840;29;20201;-75
2021/11/09 16:39:40;;;;;;;12.30;6.23;;;;;;;;;;4916008;29;20197;-75
2021/11/09 16:42:50;;;;;;;12.50;9.07;;;;;;;;;;4914659;29;20216;-76
2021/11/09 16:52:22;;;;;;;17.13;11.90;;;;;;;;;;4915725;29;20221;-76
2021/11/09 16:55:42;;;;;;;17.47;11.67;;;;;;;;;;4903870;29;20296;-76
2021/11/09 17:02:34;;;;;;;16.53;6.47;;;;;;;;;;4910789;29;20220;-76
2021/11/09 17:25:22;;;;;;;7.07;4.20;;;;;;;;;;4914187;29;20672;-75
2021/11/09 18:22:48;;;;;;;12.47;6.87;;;;;;;;;;4911028;29;20668;-75
2021/11/09 18:25:52;;;;;;;16.13;8.60;;;;;;;;;;4894775;29;20622;-75
2021/11/09 18:28:56;;;;;;;15.30;9.23;;;;;;;;;;4910267;29;20609;-75
2021/11/09 18:32:00;;;;;;;14.30;8.10;;;;;;;;;;4912823;29;20660;-75
2021/11/09 18:35:08;;;;;;;10.40;7.10;;;;;;;;;;4902023;29;20577;-75
2021/11/09 18:38:14;;;;;;;12.97;7.50;;;;;;;;;;4902010;29;20942;-75
2021/11/09 18:41:19;;;;;;;11.77;7.20;;;;;;;;;;4901764;29;20660;-75
2021/11/09 18:44:23;;;;;;;11.07;7.07;;;;;;;;;;4912887;29;20565;-75
2021/11/09 18:47:27;;;;;;;15.40;7.37;;;;;;;;;;4912886;29;20593;-75
2021/11/09 18:50:34;;;;;;;11.93;8.10;;;;;;;;;;4913775;29;20608;-75
2021/11/09 18:53:38;;;;;;;11.70;7.53;;;;;;;;;;4901282;29;20624;-75
2021/11/09 18:56:49;;;;;;;11.50;7.67;;;;;;;;;;4913688;29;20601;-75
2021/11/09 18:59:57;;;;;;;16.67;9.77;;;;;;;;;;4883022;29;20609;-75
2021/11/09 19:03:01;;;;;;;15.90;9.77;;;;;;;;;;4901757;29;21203;-75
2021/11/09 19:06:05;;;;;;;13.57;7.80;;;;;;;;;;4913425;29;20569;-75
2021/11/09 19:09:11;;;;;;;12.83;6.77;;;;;;;;;;4913106;29;20597;-75
2021/11/09 19:12:15;;;;;;;9.30;6.03;;;;;;;;;;4913212;29;21001;-75
2021/11/09 19:15:20;;;;;;;12.63;6.83;;;;;;;;;;4913281;29;20565;-76
2021/11/09 19:18:25;;;;;;;11.00;6.23;;;;;;;;;;4906869;29;20597;-75
2021/11/09 19:21:29;;;;;;;10.97;5.87;;;;;;;;;;4901621;29;20636;-76
2021/11/09 19:24:33;;;;;;;7.80;5.87;;;;;;;;;;4900289;29;20585;-76
2021/11/09 19:27:38;;;;;;;10.97;5.20;;;;;;;;;;4913287;29;20612;-75
2021/11/09 19:30:42;;;;;;;9.23;5.47;;;;;;;;;;4912909;29;21013;-76
2021/11/09 19:33:47;;;;;;;11.03;5.10;;;;;;;;;;4913311;29;20595;-75
2021/11/09 19:36:52;;;;;;;6.93;4.47;;;;;;;;;;4896469;29;20592;-76
2021/11/09 19:39:57;;;;;;;8.27;4.73;;;;;;;;;;4901477;29;20609;-76
2021/11/09 19:43:02;;;;;;;6.93;4.03;;;;;;;;;;4913274;29;20946;-76
2021/11/09 19:46:07;;;;;;;7.43;4.73;;;;;;;;;;4894853;29;20585;-76
2021/11/09 19:49:13;;;;;;;9.13;4.80;;;;;;;;;;4901060;29;20600;-75
2021/11/09 19:52:18;;;;;;;7.27;4.70;;;;;;;;;;4885902;29;20656;-76
2021/11/09 19:55:44;;;;;;;9.40;5.37;;;;;;;;;;4901058;29;20671;-76
2021/11/09 19:58:49;;;;;;;16.87;5.80;;;;;;;;;;4901365;29;21171;-75
2021/11/09 20:01:56;;;;;;;10.87;5.70;;;;;;;;;;4913076;29;21233;-75
2021/11/09 20:05:00;;;;;;;13.83;6.90;;;;;;;;;;4912697;29;21151;-75
2021/11/09 20:08:05;;;;;;;11.70;6.57;;;;;;;;;;4909448;29;21199;-75
2021/11/09 20:11:10;;;;;;;10.67;5.60;;;;;;;;;;4901520;29;20628;-76
2021/11/09 20:14:38;;;;;;;11.70;6.50;;;;;;;;;;4913061;29;20561;-76
2021/11/09 20:17:43;;;;;;;9.30;5.87;;;;;;;;;;4911947;29;20605;-76
2021/11/09 20:20:51;;;;;;;8.83;5.57;;;;;;;;;;4900917;29;20656;-76
2021/11/09 20:23:55;;;;;;;9.20;5.70;;;;;;;;;;4904050;29;20640;-76
2021/11/09 20:26:59;;;;;;;9.90;6.57;;;;;;;;;;4916076;29;20573;-76
2021/11/09 20:30:05;;;;;;;10.03;6.43;;;;;;;;;;4915540;29;20610;-76
2021/11/09 20:33:10;;;;;;;10.83;6.10;;;;;;;;;;4915302;29;21104;-75
2021/11/09 20:36:15;;;;;;;13.80;6.70;;;;;;;;;;4914987;29;20564;-76
2021/11/09 20:39:19;;;;;;;12.73;7.40;;;;;;;;;;4915754;29;20604;-76
2021/11/09 20:42:24;;;;;;;12.07;6.93;;;;;;;;;;4915087;29;21461;-76
2021/11/09 20:45:28;;;;;;;13.33;7.37;;;;;;;;;;4903744;29;20612;-75
2021/11/09 20:48:33;;;;;;;10.80;7.03;;;;;;;;;;4915612;29;20930;-75
2021/11/09 20:51:39;;;;;;;10.50;7.10;;;;;;;;;;4903819;29;20659;-75
2021/11/09 20:54:44;;;;;;;11.37;6.57;;;;;;;;;;4915727;29;20631;-75
2021/11/09 20:57:49;;;;;;;12.17;6.43;;;;;;;;;;4915619;29;21164;-76
2021/11/09 21:00:53;;;;;;;14.53;8.53;;;;;;;;;;4915058;29;20668;-75
2021/11/09 21:03:58;;;;;;;9.80;7.67;;;;;;;;;;4892985;29;20920;-75
2021/11/09 21:07:03;;;;;;;10.60;6.73;;;;;;;;;;4914934;29;20612;-76
2021/11/09 21:10:07;;;;;;;11.13;6.00;;;;;;;;;;4903405;29;20616;-76
2021/11/09 21:19:39;;;;;;;7.90;5.40;;;;;;;;;;4914224;29;20569;-75
2021/11/09 21:22:43;;;;;;;9.60;5.57;;;;;;;;;;4914940;29;20608;-76
2021/11/09 21:25:49;;;;;;;8.57;5.80;;;;;;;;;;4914929;29;21127;-76
2021/11/09 21:32:26;;;;;;;9.27;6.33;;;;;;;;;;4902946;29;21238;-77
2021/11/09 21:35:30;;;;;;;7.63;5.37;;;;;;;;;;4902915;29;20565;-76
2021/11/09 21:38:34;;;;;;;6.90;5.50;;;;;;;;;;4914679;29;20573;-76
2021/11/09 21:41:41;;;;;;;11.43;6.17;;;;;;;;;;4895891;29;20637;-76
2021/11/09 21:44:45;;;;;;;9.40;5.47;;;;;;;;;;4895124;29;20602;-76
2021/11/09 21:47:50;;;;;;;9.33;5.57;;;;;;;;;;4898829;29;20644;-76
2021/11/09 21:50:55;;;;;;;7.87;5.93;;;;;;;;;;4902645;29;20640;-75
2021/11/09 21:54:00;;;;;;;9.47;6.50;;;;;;;;;;4913066;29;20636;-76
2021/11/09 21:57:04;;;;;;;8.33;5.97;;;;;;;;;;4902506;29;20577;-76
2021/11/09 22:00:10;;;;;;;9.30;5.63;;;;;;;;;;4891451;29;20968;-76
2021/11/09 22:03:18;;;;;;;7.13;5.47;;;;;;;;;;4914122;29;20669;-75
2021/11/09 22:06:22;;;;;;;10.33;5.27;;;;;;;;;;4913563;29;20604;-75
2021/11/09 22:09:27;;;;;;;8.00;5.13;;;;;;;;;;4913189;29;20573;-75
2021/11/09 22:12:31;;;;;;;8.27;5.17;;;;;;;;;;4901929;29;20635;-75
2021/11/09 22:15:37;;;;;;;6.80;4.90;;;;;;;;;;4913121;29;20564;-75
2021/11/09 22:18:41;;;;;;;10.93;5.53;;;;;;;;;;4913722;29;20884;-75
2021/11/09 22:21:45;;;;;;;11.10;5.33;;;;;;;;;;4943047;23;20650;-88
2021/11/09 22:24:50;;;;;;;8.47;5.10;;;;;;;;;;4932922;29;20635;-88
2021/11/09 22:27:54;;;;;;;7.77;5.00;;;;;;;;;;4932049;29;20587;-88
2021/11/09 22:30:59;;;;;;;8.97;5.30;;;;;;;;;;4915293;29;20588;-86
2021/11/09 22:34:03;;;;;;;7.37;5.07;;;;;;;;;;4895711;29;20577;-87
2021/11/09 22:37:07;;;;;;;7.23;4.83;;;;;;;;;;4884697;29;20546;-87
2021/11/09 22:40:12;;;;;;;7.70;5.10;;;;;;;;;;4885397;29;20549;-86
2021/11/09 22:43:17;;;;;;;12.63;6.10;;;;;;;;;;4895378;29;20633;-88
2021/11/09 22:46:21;;;;;;;11.77;5.90;;;;;;;;;;4895280;29;20593;-86
2021/11/09 22:49:25;;;;;;;10.10;6.23;;;;;;;;;;4895767;29;20542;-88
2021/11/09 22:52:30;;;;;;;10.67;5.67;;;;;;;;;;4895420;29;21194;-86
2021/11/09 22:55:34;;;;;;;9.70;5.50;;;;;;;;;;4895774;29;20540;-87
2021/11/09 22:58:38;;;;;;;12.13;5.93;;;;;;;;;;4896274;29;20549;-88
2021/11/09 23:01:43;;;;;;;7.53;5.13;;;;;;;;;;4904383;29;20596;-88